DLH613 UBBB-EDDF
Flight info
| Callsign | DLH613 |
|---|---|
| Flight time | N/A |
| Altitude | 32000 |
| Route | RASAM N199 LUSAL N319 ADEKI DCT BADIR DCT LAGAS DCT FOQUS DCT ROLIN DCT OLDUD UL746 ODERO DCT OPT DCT MOPUG DCT SASAL DCT SUBEN Q162 SPESA SPESA5B |
| Aircraft | A320/M-SDE3FGHIRWY/LB1 |
Departure
| Time | N/A |
|---|---|
| Airport | Heydar Aliyev International Airport (UBBB) |
Arrival
| Time | 2026-05-06 12:34 |
|---|---|
| Airport | Frankfurt Main Airport (EDDF) |
| Time | Latitude | Longitude | Altitude | Speed | Heading |
|---|---|---|---|---|---|
| 2026-05-06 12:17 | 50.16865 | 8.93952 | 25752 ft | 491 kts | 19° |
| 2026-05-06 12:17 | 50.19983 | 8.96120 | 24374 ft | 491 kts | 27° |
| 2026-05-06 12:17 | 50.22837 | 8.99057 | 23084 ft | 490 kts | 38° |
| 2026-05-06 12:17 | 50.25225 | 9.02796 | 21984 ft | 482 kts | 52° |
| 2026-05-06 12:18 | 50.26940 | 9.07225 | 20900 ft | 473 kts | 67° |
| 2026-05-06 12:18 | 50.27826 | 9.12094 | 19821 ft | 463 kts | 84° |
| 2026-05-06 12:18 | 50.27720 | 9.17026 | 18751 ft | 451 kts | 103° |
| 2026-05-06 12:18 | 50.26670 | 9.21453 | 17714 ft | 439 kts | 122° |
| 2026-05-06 12:19 | 50.24751 | 9.25184 | 16648 ft | 427 kts | 138° |
| 2026-05-06 12:19 | 50.22468 | 9.28076 | 15605 ft | 419 kts | 147° |
| 2026-05-06 12:19 | 50.20035 | 9.30527 | 14582 ft | 413 kts | 152° |
| 2026-05-06 12:19 | 50.17569 | 9.32765 | 13590 ft | 408 kts | 150° |
| 2026-05-06 12:20 | 50.15432 | 9.35672 | 12689 ft | 408 kts | 131° |
| 2026-05-06 12:20 | 50.14099 | 9.39504 | 12049 ft | 402 kts | 110° |
| 2026-05-06 12:20 | 50.13762 | 9.43735 | 11707 ft | 388 kts | 88° |
| 2026-05-06 12:20 | 50.14429 | 9.47712 | 11511 ft | 375 kts | 65° |
| 2026-05-06 12:21 | 50.15942 | 9.50887 | 11297 ft | 361 kts | 40° |
| 2026-05-06 12:21 | 50.18055 | 9.52813 | 11055 ft | 345 kts | 15° |
| 2026-05-06 12:21 | 50.20363 | 9.53206 | 10794 ft | 328 kts | 349° |
| 2026-05-06 12:21 | 50.22469 | 9.52103 | 10541 ft | 318 kts | 326° |
| 2026-05-06 12:22 | 50.24224 | 9.50052 | 10334 ft | 312 kts | 313° |
| 2026-05-06 12:22 | 50.25581 | 9.47470 | 10185 ft | 306 kts | 297° |
| 2026-05-06 12:22 | 50.26323 | 9.44403 | 10066 ft | 300 kts | 277° |
| 2026-05-06 12:22 | 50.26295 | 9.41210 | 9898 ft | 289 kts | 256° |
| 2026-05-06 12:23 | 50.25593 | 9.38374 | 9792 ft | 275 kts | 240° |
| 2026-05-06 12:23 | 50.24573 | 9.35910 | 9551 ft | 269 kts | 236° |
| 2026-05-06 12:23 | 50.23506 | 9.33506 | 9164 ft | 270 kts | 236° |
| 2026-05-06 12:23 | 50.22462 | 9.31062 | 8779 ft | 271 kts | 237° |
| 2026-05-06 12:24 | 50.21461 | 9.28581 | 8411 ft | 270 kts | 238° |
| 2026-05-06 12:24 | 50.20478 | 9.26088 | 8052 ft | 269 kts | 238° |
| 2026-05-06 12:24 | 50.19498 | 9.23615 | 7658 ft | 267 kts | 238° |
| 2026-05-06 12:24 | 50.18634 | 9.21074 | 7300 ft | 264 kts | 246° |
| 2026-05-06 12:25 | 50.17984 | 9.18435 | 6948 ft | 263 kts | 250° |
| 2026-05-06 12:25 | 50.17393 | 9.15698 | 6548 ft | 264 kts | 251° |
| 2026-05-06 12:25 | 50.16803 | 9.12982 | 6176 ft | 262 kts | 250° |
| 2026-05-06 12:25 | 50.16197 | 9.10363 | 5828 ft | 260 kts | 249° |
| 2026-05-06 12:26 | 50.15564 | 9.07705 | 5485 ft | 258 kts | 249° |
| 2026-05-06 12:26 | 50.14952 | 9.05112 | 5154 ft | 257 kts | 250° |
| 2026-05-06 12:26 | 50.14347 | 9.02502 | 4870 ft | 254 kts | 250° |
| 2026-05-06 12:26 | 50.13766 | 8.99965 | 4652 ft | 242 kts | 250° |
| 2026-05-06 12:27 | 50.13208 | 8.97578 | 4439 ft | 228 kts | 250° |
| 2026-05-06 12:27 | 50.12709 | 8.95317 | 4277 ft | 212 kts | 256° |
| 2026-05-06 12:27 | 50.12289 | 8.93212 | 4131 ft | 197 kts | 249° |
| 2026-05-06 12:27 | 50.11809 | 8.91305 | 3975 ft | 182 kts | 249° |
| 2026-05-06 12:28 | 50.11360 | 8.89515 | 4061 ft | 175 kts | 249° |
| 2026-05-06 12:28 | 50.10940 | 8.87746 | 4045 ft | 174 kts | 250° |
| 2026-05-06 12:28 | 50.10527 | 8.85980 | 3941 ft | 172 kts | 250° |
| 2026-05-06 12:28 | 50.10114 | 8.84244 | 3776 ft | 169 kts | 250° |
| 2026-05-06 12:29 | 50.09709 | 8.82546 | 3574 ft | 164 kts | 250° |
| 2026-05-06 12:29 | 50.09319 | 8.80908 | 3355 ft | 161 kts | 250° |
| 2026-05-06 12:29 | 50.08933 | 8.79293 | 3142 ft | 156 kts | 250° |
| 2026-05-06 12:29 | 50.08563 | 8.77733 | 2948 ft | 150 kts | 250° |
| 2026-05-06 12:30 | 50.08204 | 8.76216 | 2712 ft | 149 kts | 251° |
| 2026-05-06 12:30 | 50.07949 | 8.74662 | 2442 ft | 148 kts | 258° |
| 2026-05-06 12:30 | 50.07757 | 8.73108 | 2161 ft | 144 kts | 258° |
| 2026-05-06 12:30 | 50.07554 | 8.71624 | 1942 ft | 135 kts | 255° |
| 2026-05-06 12:31 | 50.07307 | 8.70274 | 1753 ft | 127 kts | 249° |
| 2026-05-06 12:31 | 50.07019 | 8.68968 | 1618 ft | 128 kts | 246° |
| 2026-05-06 12:31 | 50.06679 | 8.67654 | 1610 ft | 134 kts | 244° |
| 2026-05-06 12:31 | 50.06320 | 8.66334 | 1548 ft | 141 kts | 243° |
| 2026-05-06 12:32 | 50.05924 | 8.65125 | 1412 ft | 141 kts | 244° |
| 2026-05-06 12:32 | 50.05679 | 8.63670 | 1193 ft | 138 kts | 251° |
| 2026-05-06 12:32 | 50.05372 | 8.62260 | 893 ft | 134 kts | 245° |
| 2026-05-06 12:32 | 50.05052 | 8.60954 | 676 ft | 127 kts | 245° |
| 2026-05-06 12:33 | 50.04755 | 8.59688 | 520 ft | 124 kts | 245° |
| 2026-05-06 12:33 | 50.04442 | 8.58401 | 416 ft | 130 kts | 245° |
| 2026-05-06 12:33 | 50.04140 | 8.57142 | 379 ft | 114 kts | 248° |
| 2026-05-06 12:33 | 50.03898 | 8.56124 | 378 ft | 86 kts | 248° |
| 2026-05-06 12:34 | 50.03789 | 8.55675 | 378 ft | 11 kts | 253° |
| 2026-05-06 12:34 | 50.03799 | 8.55566 | 378 ft | 11 kts | 305° |
| 2026-05-06 12:34 | 50.03851 | 8.55512 | 378 ft | 9 kts | 339° |
| 2026-05-06 12:34 | 50.03909 | 8.55485 | 378 ft | 9 kts | 347° |
| 2026-05-06 12:35 | 50.03948 | 8.55472 | 378 ft | 9 kts | 349° |
| 2026-05-06 12:35 | 50.04012 | 8.55451 | 378 ft | 8 kts | 335° |
| 2026-05-06 12:35 | 50.04064 | 8.55415 | 378 ft | 8 kts | 341° |
| 2026-05-06 12:35 | 50.04091 | 8.55413 | 378 ft | 8 kts | 11° |
| 2026-05-06 12:36 | 50.04128 | 8.55464 | 378 ft | 7 kts | 77° |
| 2026-05-06 12:36 | 50.04140 | 8.55538 | 378 ft | 7 kts | 73° |
| 2026-05-06 12:36 | 50.04157 | 8.55608 | 378 ft | 7 kts | 68° |
| 2026-05-06 12:36 | 50.04174 | 8.55674 | 378 ft | 7 kts | 69° |
| 2026-05-06 12:37 | 50.04191 | 8.55744 | 378 ft | 7 kts | 69° |
| 2026-05-06 12:37 | 50.04208 | 8.55817 | 378 ft | 7 kts | 69° |
| 2026-05-06 12:37 | 50.04225 | 8.55889 | 378 ft | 7 kts | 69° |
| 2026-05-06 12:37 | 50.04243 | 8.55960 | 378 ft | 7 kts | 69° |
| 2026-05-06 12:38 | 50.04260 | 8.56031 | 378 ft | 7 kts | 68° |
| 2026-05-06 12:38 | 50.04295 | 8.56076 | 378 ft | 7 kts | 8° |
| 2026-05-06 12:38 | 50.04340 | 8.56061 | 378 ft | 7 kts | 340° |
| 2026-05-06 12:38 | 50.04384 | 8.56036 | 378 ft | 7 kts | 342° |
| 2026-05-06 12:39 | 50.04428 | 8.56046 | 378 ft | 7 kts | 34° |
| 2026-05-06 12:39 | 50.04449 | 8.56107 | 378 ft | 6 kts | 71° |
| 2026-05-06 12:39 | 50.04463 | 8.56172 | 378 ft | 6 kts | 70° |
| 2026-05-06 12:39 | 50.04478 | 8.56236 | 378 ft | 6 kts | 69° |
| 2026-05-06 12:40 | 50.04489 | 8.56283 | 378 ft | 4 kts | 69° |
| 2026-05-06 12:40 | 50.04508 | 8.56311 | 378 ft | 4 kts | 10° |
| 2026-05-06 12:40 | 50.04532 | 8.56300 | 378 ft | 4 kts | 340° |
| 2026-05-06 12:40 | 50.04536 | 8.56299 | 378 ft | 1 kts | 340° |
| 2026-05-06 12:41 | 50.04546 | 8.56300 | 378 ft | 2 kts | 20° |
| 2026-05-06 12:41 | 50.04554 | 8.56308 | 378 ft | 0 kts | 40° |
| 2026-05-06 12:41 | 50.04555 | 8.56309 | 378 ft | 1 kts | 40° |
| 2026-05-06 12:41 | 50.04562 | 8.56317 | 378 ft | 1 kts | 38° |
| 2026-05-06 12:42 | 50.04562 | 8.56318 | 378 ft | 0 kts | 38° |
| 2026-05-06 12:42 | 50.04563 | 8.56319 | 378 ft | 0 kts | 38° |
| 2026-05-06 12:42 | 50.04564 | 8.56320 | 378 ft | 0 kts | 37° |